Alpine Link — V7SZ7 — position and weather

sailwx.info

Track history (hours):
 
Tides and Currents Weather Stations Pressure Air Temp Water Temp Dewpoint Dewpoint Depression Visibility Wind Speed Wind Dir Waves Ship Positions

Alpine Link

Last reported at 2015-Sep-05 11:33 UTC. Time now 2015-Sep-05 12:24 UTC.
Position N 44°52' E 036°38'.

Length 183 m; draft 8.5 m.

Type: Tanker. MMSI: 538003758.

Date/timePositionNaut miles runAvg speedWind from/ knotsBaromVisibWave heightAir tempDewpointWater temp
2015-Sep-05 11:33N 44°52' E 036°38'0 0.0
2015-Sep-05 10:33N 44°52' E 036°38'0 0.0
2015-Sep-04 20:09N 44°52' E 036°38'0 0.0
2015-Sep-04 19:27N 44°52' E 036°38'0 0.0
2015-Sep-04 17:33N 44°52' E 036°38'0 0.0
2015-Sep-04 16:30N 44°52' E 036°38'0 0.0
2015-Sep-04 15:32N 44°52' E 036°38'0 0.0
2015-Sep-04 14:30N 44°52' E 036°38'0 0.0
2015-Sep-04 13:32N 44°52' E 036°38'0 0.0
2015-Sep-04 12:32N 44°52' E 036°38'0 0.0
2015-Sep-04 04:32N 44°52' E 036°38'0 0.0
2015-Sep-04 03:32N 44°52' E 036°38'0 0.0
2015-Sep-04 02:17N 44°52' E 036°38'0 0.0
2015-Sep-04 01:32N 44°52' E 036°38'0 0.0
2015-Sep-03 23:32N 44°52' E 036°38'0 0.0
2015-Sep-03 17:08N 44°52' E 036°38'0 0.0
2015-Sep-03 16:32N 44°52' E 036°38'2 1.9
2015-Sep-03 15:33N 44°51' E 036°36'1 0.6
2015-Sep-03 14:31N 44°51' E 036°37'0 0.0
2015-Sep-03 13:31N 44°52' E 036°37'0 0.0
2015-Sep-03 12:31N 44°52' E 036°37'0 0.0
2015-Sep-03 11:31N 44°52' E 036°37'0 0.0
2015-Sep-03 10:31N 44°52' E 036°37'0 0.0
2015-Sep-03 09:31N 44°52' E 036°37'0 0.0
2015-Sep-03 08:31N 44°52' E 036°37'0 0.0
2015-Sep-03 07:31N 44°52' E 036°37'0 0.0
2015-Sep-03 06:31N 44°52' E 036°37'0 0.0
2015-Sep-03 04:13N 44°52' E 036°37'0 0.0
2015-Sep-03 03:31N 44°52' E 036°37'0 0.0
2015-Sep-02 19:19N 44°52' E 036°37'0 0.0
2015-Sep-02 18:28N 44°52' E 036°37'0 0.0
2015-Sep-02 17:28N 44°52' E 036°37'0 0.0
2015-Sep-02 16:31N 44°52' E 036°37'0 0.0
2015-Sep-02 15:31N 44°52' E 036°37'0 0.0
2015-Sep-02 14:31N 44°52' E 036°37'0 0.0
2015-Sep-02 13:31N 44°52' E 036°37'0 0.0
2015-Sep-02 12:31N 44°52' E 036°37'0 0.0
2015-Sep-02 11:31N 44°52' E 036°37'0 0.0
2015-Sep-02 10:25N 44°52' E 036°37'0 0.0
2015-Sep-02 09:31N 44°52' E 036°37'0 0.0
2015-Sep-02 07:33N 44°52' E 036°36'1 1.0
2015-Sep-02 06:33N 44°51' E 036°36'6 5.8
2015-Sep-02 05:33N 44°54' E 036°29'1010.2
2015-Sep-02 04:33N 45°04' E 036°33'1 1.1
2015-Sep-02 03:33N 45°04' E 036°35'0 0.0
2015-Sep-02 02:33N 45°04' E 036°35'0 0.0
2015-Sep-02 01:33N 45°04' E 036°35'0 0.0
2015-Sep-02 00:33N 45°04' E 036°35'0 0.0
2015-Sep-01 23:33N 45°04' E 036°35'0 0.0
2015-Sep-01 22:33N 45°04' E 036°35'0 0.0
2015-Sep-01 21:30N 45°04' E 036°35'0 0.0
2015-Sep-01 20:33N 45°04' E 036°35'0 0.2
2015-Sep-01 19:33N 45°04' E 036°35'4 4.4
2015-Sep-01 18:33N 45°07' E 036°40'0 0.0
2015-Sep-01 16:06N 45°07' E 036°40'0 0.0
2015-Sep-01 15:33N 45°07' E 036°40'0 0.0
2015-Sep-01 14:33N 45°07' E 036°40'0 0.0
2015-Sep-01 13:33N 45°07' E 036°40'0 0.0
2015-Sep-01 12:33N 45°07' E 036°40'0 0.0
2015-Sep-01 11:33N 45°07' E 036°40'0 0.0
2015-Sep-01 10:33N 45°07' E 036°40'0 0.0
2015-Sep-01 09:33N 45°07' E 036°40'0 0.0
2015-Sep-01 08:27N 45°07' E 036°40'0 0.0
2015-Sep-01 07:27N 45°07' E 036°40'0 0.0
2015-Aug-31 23:09N 45°07' E 036°40'0 0.0
2015-Aug-31 22:33N 45°07' E 036°40'18 1.1
2015-Aug-31 05:26N 44°50' E 036°34'4 2.0
2015-Aug-31 03:31N 44°46' E 036°32'3411.5
2015-Aug-31 00:33N 44°12' E 036°25'3012.6
2015-Aug-30 22:10N 43°59' E 035°48'812.6
2015-Aug-30 21:33N 43°55' E 035°38'2712.8
2015-Aug-30 19:25N 43°43' E 035°05'1312.8
2015-Aug-30 18:25N 43°37' E 034°49'313 8.2
2015-Aug-29 04:09N 40°45' E 028°56'0 0.6
2015-Aug-29 03:33N 40°46' E 028°57'1 0.5
2015-Aug-29 02:30N 40°46' E 028°57'0 0.4
2015-Aug-29 01:33N 40°46' E 028°57'7 6.8
2015-Aug-29 00:33N 40°46' E 028°48'266 9.4
2015-Aug-27 20:20N 37°47' E 024°34'911.0
2015-Aug-27 19:32N 37°39' E 024°30'  
Track history (hours):
 
Tides and Currents Weather Stations Pressure Air Temp Water Temp Dewpoint Dewpoint Depression Visibility Wind Speed Wind Dir Waves Ship Positions

Alpine Link

Last reported at 2015-Sep-05 11:33 UTC. Time now 2015-Sep-05 12:24 UTC.
Position N 44°52' E 036°38'.

Length 183 m; draft 8.5 m.

Type: Tanker. MMSI: 538003758.

Date/timePositionNaut miles runAvg speedWind from/ knotsBaromVisibWave heightAir tempDewpointWater temp
2015-Sep-05 11:33N 44°52' E 036°38'0 0.0
2015-Sep-05 10:33N 44°52' E 036°38'0 0.0
2015-Sep-04 20:09N 44°52' E 036°38'0 0.0
2015-Sep-04 19:27N 44°52' E 036°38'0 0.0
2015-Sep-04 17:33N 44°52' E 036°38'0 0.0
2015-Sep-04 16:30N 44°52' E 036°38'0 0.0
2015-Sep-04 15:32N 44°52' E 036°38'0 0.0
2015-Sep-04 14:30N 44°52' E 036°38'0 0.0
2015-Sep-04 13:32N 44°52' E 036°38'0 0.0
2015-Sep-04 12:32N 44°52' E 036°38'0 0.0
2015-Sep-04 04:32N 44°52' E 036°38'0 0.0
2015-Sep-04 03:32N 44°52' E 036°38'0 0.0
2015-Sep-04 02:17N 44°52' E 036°38'0 0.0
2015-Sep-04 01:32N 44°52' E 036°38'0 0.0
2015-Sep-03 23:32N 44°52' E 036°38'0 0.0
2015-Sep-03 17:08N 44°52' E 036°38'0 0.0
2015-Sep-03 16:32N 44°52' E 036°38'2 1.9
2015-Sep-03 15:33N 44°51' E 036°36'1 0.6
2015-Sep-03 14:31N 44°51' E 036°37'0 0.0
2015-Sep-03 13:31N 44°52' E 036°37'0 0.0
2015-Sep-03 12:31N 44°52' E 036°37'0 0.0
2015-Sep-03 11:31N 44°52' E 036°37'0 0.0
2015-Sep-03 10:31N 44°52' E 036°37'0 0.0
2015-Sep-03 09:31N 44°52' E 036°37'0 0.0
2015-Sep-03 08:31N 44°52' E 036°37'0 0.0
2015-Sep-03 07:31N 44°52' E 036°37'0 0.0
2015-Sep-03 06:31N 44°52' E 036°37'0 0.0
2015-Sep-03 04:13N 44°52' E 036°37'0 0.0
2015-Sep-03 03:31N 44°52' E 036°37'0 0.0
2015-Sep-02 19:19N 44°52' E 036°37'0 0.0
2015-Sep-02 18:28N 44°52' E 036°37'0 0.0
2015-Sep-02 17:28N 44°52' E 036°37'0 0.0
2015-Sep-02 16:31N 44°52' E 036°37'0 0.0
2015-Sep-02 15:31N 44°52' E 036°37'0 0.0
2015-Sep-02 14:31N 44°52' E 036°37'0 0.0
2015-Sep-02 13:31N 44°52' E 036°37'0 0.0
2015-Sep-02 12:31N 44°52' E 036°37'0 0.0
2015-Sep-02 11:31N 44°52' E 036°37'0 0.0
2015-Sep-02 10:25N 44°52' E 036°37'0 0.0
2015-Sep-02 09:31N 44°52' E 036°37'0 0.0
2015-Sep-02 07:33N 44°52' E 036°36'1 1.0
2015-Sep-02 06:33N 44°51' E 036°36'6 5.8
2015-Sep-02 05:33N 44°54' E 036°29'1010.2
2015-Sep-02 04:33N 45°04' E 036°33'1 1.1
2015-Sep-02 03:33N 45°04' E 036°35'0 0.0
2015-Sep-02 02:33N 45°04' E 036°35'0 0.0
2015-Sep-02 01:33N 45°04' E 036°35'0 0.0
2015-Sep-02 00:33N 45°04' E 036°35'0 0.0
2015-Sep-01 23:33N 45°04' E 036°35'0 0.0
2015-Sep-01 22:33N 45°04' E 036°35'0 0.0
2015-Sep-01 21:30N 45°04' E 036°35'0 0.0
2015-Sep-01 20:33N 45°04' E 036°35'0 0.2
2015-Sep-01 19:33N 45°04' E 036°35'4 4.4
2015-Sep-01 18:33N 45°07' E 036°40'0 0.0
2015-Sep-01 16:06N 45°07' E 036°40'0 0.0
2015-Sep-01 15:33N 45°07' E 036°40'0 0.0
2015-Sep-01 14:33N 45°07' E 036°40'0 0.0
2015-Sep-01 13:33N 45°07' E 036°40'0 0.0
2015-Sep-01 12:33N 45°07' E 036°40'0 0.0
2015-Sep-01 11:33N 45°07' E 036°40'0 0.0
2015-Sep-01 10:33N 45°07' E 036°40'0 0.0
2015-Sep-01 09:33N 45°07' E 036°40'0 0.0
2015-Sep-01 08:27N 45°07' E 036°40'0 0.0
2015-Sep-01 07:27N 45°07' E 036°40'0 0.0
2015-Aug-31 23:09N 45°07' E 036°40'0 0.0
2015-Aug-31 22:33N 45°07' E 036°40'18 1.1
2015-Aug-31 05:26N 44°50' E 036°34'4 2.0
2015-Aug-31 03:31N 44°46' E 036°32'3411.5
2015-Aug-31 00:33N 44°12' E 036°25'3012.6
2015-Aug-30 22:10N 43°59' E 035°48'812.6
2015-Aug-30 21:33N 43°55' E 035°38'2712.8
2015-Aug-30 19:25N 43°43' E 035°05'1312.8
2015-Aug-30 18:25N 43°37' E 034°49'313 8.2
2015-Aug-29 04:09N 40°45' E 028°56'0 0.6
2015-Aug-29 03:33N 40°46' E 028°57'1 0.5
2015-Aug-29 02:30N 40°46' E 028°57'0 0.4
2015-Aug-29 01:33N 40°46' E 028°57'7 6.8
2015-Aug-29 00:33N 40°46' E 028°48'266 9.4
2015-Aug-27 20:20N 37°47' E 024°34'911.0
2015-Aug-27 19:32N 37°39' E 024°30'  

Dump ship's entire track history